Time;durP1;ratioP1;P1;durP2;ratioP2;P2;SDS_P1;SDS_P2;PMS_P1;PMS_P2;Temp;Humidity;BMP_temperature;BMP_pressure;BME280_temperature;BME280_humidity;BME280_pressure;Samples;Min_cycle;Max_cycle;Signal;HPM_P1;HPM_P2
2021/03/02 00:01:06;;;;;;;1.75;1.23;;;1.80;99.90;;;;;;5014978;28;20681;-73
2021/03/02 00:03:33;;;;;;;1.15;1.00;;;1.70;99.90;;;;;;5016728;28;20284;-73
2021/03/02 00:06:03;;;;;;;1.85;1.00;;;1.60;99.90;;;;;;4998515;28;20198;-72
2021/03/02 00:08:29;;;;;;;2.35;1.10;;;1.70;99.90;;;;;;5014306;28;20202;-73
2021/03/02 00:10:58;;;;;;;1.50;0.93;;;1.80;99.90;;;;;;5015244;28;20194;-72
2021/03/02 00:13:24;;;;;;;1.77;1.20;;;1.80;99.90;;;;;;5018153;28;20656;-73
2021/03/02 00:15:50;;;;;;;1.55;1.10;;;1.90;99.90;;;;;;5019046;28;20198;-73
2021/03/02 00:18:19;;;;;;;1.08;1.00;;;1.90;99.90;;;;;;5004445;28;20565;-73
2021/03/02 00:20:47;;;;;;;1.73;1.00;;;2.10;99.90;;;;;;5005157;28;20208;-75
2021/03/02 00:23:38;;;;;;;5.15;1.08;;;2.20;99.90;;;;;;5002148;28;20205;-75
2021/03/02 00:26:06;;;;;;;1.73;1.10;;;2.10;99.90;;;;;;5005951;28;20296;-75
2021/03/02 00:28:34;;;;;;;4.32;0.90;;;2.00;99.90;;;;;;5017561;28;20195;-73
2021/03/02 00:31:01;;;;;;;1.92;1.20;;;2.00;99.90;;;;;;5016933;28;20290;-73
2021/03/02 00:33:28;;;;;;;1.90;1.10;;;1.90;99.90;;;;;;5002159;28;20202;-73
2021/03/02 00:35:54;;;;;;;3.88;1.10;;;1.80;99.90;;;;;;5017845;28;20292;-72
2021/03/02 00:38:20;;;;;;;1.10;1.00;;;1.70;99.90;;;;;;5003527;28;20300;-74
2021/03/02 00:40:45;;;;;;;0.90;0.90;;;1.60;99.90;;;;;;5003883;28;20194;-74
2021/03/02 00:43:12;;;;;;;4.10;1.00;;;1.70;99.90;;;;;;5019615;28;20294;-72
2021/03/02 00:45:37;;;;;;;1.40;0.93;;;2.00;99.90;;;;;;4998018;28;20673;-72
2021/03/02 00:48:04;;;;;;;1.35;0.98;;;1.90;99.90;;;;;;5019783;28;20224;-72
2021/03/02 00:50:30;;;;;;;1.63;1.15;;;1.90;99.90;;;;;;5003187;28;20230;-72
2021/03/02 00:52:56;;;;;;;1.75;1.00;;;1.90;99.90;;;;;;5001789;28;20205;-74
2021/03/02 00:55:22;;;;;;;0.88;0.88;;;2.10;99.90;;;;;;5018933;28;20204;-72
2021/03/02 00:57:47;;;;;;;1.05;0.93;;;2.40;99.90;;;;;;5001990;28;20313;-73
2021/03/02 01:00:14;;;;;;;1.52;1.05;;;2.50;99.90;;;;;;5000948;28;20256;-72
2021/03/02 01:02:40;;;;;;;2.70;0.95;;;3.00;99.90;;;;;;5014965;28;20241;-73
2021/03/02 01:05:07;;;;;;;0.98;0.80;;;3.00;99.90;;;;;;5016387;28;20621;-72
2021/03/02 01:07:34;;;;;;;1.30;0.95;;;3.10;99.90;;;;;;5003821;28;20203;-73
2021/03/02 01:09:59;;;;;;;0.93;0.90;;;3.30;99.90;;;;;;4997900;28;20210;-73
2021/03/02 01:12:28;;;;;;;1.10;1.00;;;3.10;99.90;;;;;;5004309;28;20206;-72
2021/03/02 01:14:58;;;;;;;1.88;1.00;;;2.90;99.90;;;;;;5017230;28;20194;-72
2021/03/02 01:17:25;;;;;;;1.42;1.10;;;2.60;99.90;;;;;;5017930;28;20232;-74
2021/03/02 01:19:51;;;;;;;1.00;0.90;;;2.70;99.90;;;;;;5000943;28;20238;-72
2021/03/02 01:22:17;;;;;;;1.60;1.10;;;2.70;99.90;;;;;;5017956;28;20581;-72
2021/03/02 01:24:43;;;;;;;1.23;1.00;;;2.60;99.90;;;;;;5017046;28;20198;-72
2021/03/02 01:27:09;;;;;;;1.83;0.95;;;2.50;99.90;;;;;;5018554;28;20319;-73
2021/03/02 01:29:35;;;;;;;1.25;1.05;;;2.40;99.90;;;;;;5016689;28;20232;-73
2021/03/02 01:32:00;;;;;;;0.70;0.70;;;2.30;99.90;;;;;;5016561;28;20210;-73
2021/03/02 01:34:26;;;;;;;0.80;0.80;;;2.20;99.90;;;;;;5017035;28;20692;-75
2021/03/02 01:36:52;;;;;;;1.20;1.10;;;2.50;99.90;;;;;;5018685;28;20205;-74
2021/03/02 01:39:18;;;;;;;1.08;0.98;;;2.80;99.90;;;;;;5020102;28;20700;-75
2021/03/02 01:41:57;;;;;;;0.90;0.82;;;2.70;99.90;;;;;;5019928;28;20206;-73
2021/03/02 01:44:24;;;;;;;0.90;0.90;;;2.70;99.90;;;;;;5020018;28;20213;-74
2021/03/02 01:46:51;;;;;;;0.98;0.98;;;2.90;99.90;;;;;;5017973;28;20714;-74
2021/03/02 01:49:18;;;;;;;2.22;1.10;;;2.90;99.90;;;;;;5018183;28;20198;-74
2021/03/02 01:51:44;;;;;;;2.88;1.10;;;3.00;99.90;;;;;;5019927;28;20744;-73
2021/03/02 01:54:14;;;;;;;1.30;1.00;;;3.10;99.90;;;;;;5017029;28;20485;-73
2021/03/02 01:56:41;;;;;;;2.75;1.02;;;3.00;99.90;;;;;;5015455;28;20226;-75
2021/03/02 01:59:07;;;;;;;1.17;1.08;;;3.00;99.90;;;;;;5017648;28;20209;-73
2021/03/02 02:01:34;;;;;;;0.80;0.80;;;2.90;99.90;;;;;;5017038;28;20536;-74
2021/03/02 02:04:22;;;;;;;1.00;0.90;;;3.10;99.90;;;;;;5003590;23;20248;-68
2021/03/02 02:07:08;;;;;;;2.67;1.10;;;3.10;99.90;;;;;;5017174;28;21026;-69
2021/03/02 02:09:36;;;;;;;2.22;1.00;;;3.10;99.90;;;;;;5016306;28;20195;-68
2021/03/02 02:12:07;;;;;;;1.00;0.90;;;3.00;99.90;;;;;;5018387;28;20785;-69
2021/03/02 02:14:58;;;;;;;1.08;0.98;;;2.80;99.90;;;;;;5004203;28;21146;-68
2021/03/02 02:17:47;;;;;;;0.90;0.90;;;2.80;99.90;;;;;;5020150;28;20205;-67
2021/03/02 02:20:31;;;;;;;1.02;0.93;;;2.70;99.90;;;;;;5019655;28;20198;-68
2021/03/02 02:22:59;;;;;;;0.90;0.90;;;2.70;99.90;;;;;;5015016;28;20217;-68
2021/03/02 02:25:48;;;;;;;3.13;1.00;;;2.60;99.90;;;;;;5016837;28;20194;-71
2021/03/02 02:28:17;;;;;;;1.10;1.00;;;2.40;99.90;;;;;;4989708;28;20210;-71
2021/03/02 02:30:46;;;;;;;1.15;0.90;;;2.30;99.90;;;;;;5015877;28;20204;-69
2021/03/02 02:33:15;;;;;;;1.60;0.93;;;2.20;99.90;;;;;;5019117;28;20194;-67
2021/03/02 02:35:43;;;;;;;1.58;1.02;;;2.00;99.90;;;;;;5015121;28;20206;-68
2021/03/02 02:38:10;;;;;;;1.02;0.90;;;1.90;99.90;;;;;;5010764;28;20194;-68
2021/03/02 02:40:38;;;;;;;1.08;1.00;;;1.80;99.90;;;;;;5018502;28;20194;-70
2021/03/02 02:43:05;;;;;;;4.88;1.10;;;1.80;99.90;;;;;;5020913;28;20221;-68
2021/03/02 02:45:30;;;;;;;1.15;1.05;;;1.90;99.90;;;;;;5005153;28;20198;-68
2021/03/02 02:47:56;;;;;;;1.92;1.05;;;1.80;99.90;;;;;;5020957;28;20193;-69
2021/03/02 02:50:24;;;;;;;1.55;1.00;;;1.90;99.90;;;;;;5018366;28;20211;-69
2021/03/02 02:52:51;;;;;;;2.53;1.08;;;1.80;99.90;;;;;;5018073;28;20200;-68
2021/03/02 02:55:19;;;;;;;1.10;1.00;;;1.60;99.90;;;;;;5015252;28;20190;-69
2021/03/02 02:57:48;;;;;;;1.55;1.00;;;1.50;99.90;;;;;;5015123;28;20199;-69
2021/03/02 03:00:18;;;;;;;1.08;0.98;;;1.40;99.90;;;;;;5014971;28;20279;-70
2021/03/02 03:02:47;;;;;;;2.80;1.20;;;1.20;99.90;;;;;;5014905;28;20211;-68
2021/03/02 03:05:17;;;;;;;0.98;0.85;;;1.00;99.90;;;;;;5011965;28;20242;-67
2021/03/02 03:07:57;;;;;;;1.63;0.95;;;0.90;99.90;;;;;;5015090;28;21000;-69
2021/03/02 03:10:29;;;;;;;1.20;1.00;;;0.80;99.90;;;;;;5018987;28;20193;-68
2021/03/02 03:13:01;;;;;;;1.10;1.00;;;0.90;99.90;;;;;;5015945;28;20202;-68
2021/03/02 03:15:29;;;;;;;1.10;1.00;;;0.80;99.90;;;;;;5017860;28;20202;-67
2021/03/02 03:17:57;;;;;;;1.63;1.10;;;0.80;99.90;;;;;;5000575;28;20237;-68
2021/03/02 03:20:26;;;;;;;1.27;1.00;;;0.80;99.90;;;;;;5018451;28;20653;-69
2021/03/02 03:22:54;;;;;;;3.65;1.02;;;0.80;99.90;;;;;;5016054;28;20909;-70
2021/03/02 03:25:20;;;;;;;1.38;1.02;;;0.90;99.90;;;;;;5002406;28;20264;-68
2021/03/02 03:27:50;;;;;;;1.35;1.20;;;1.10;99.90;;;;;;5016474;28;20661;-68
2021/03/02 03:30:17;;;;;;;1.40;1.05;;;1.10;99.90;;;;;;5019165;28;20194;-68
2021/03/02 03:32:47;;;;;;;1.92;1.35;;;1.10;99.90;;;;;;5000080;28;20259;-67
2021/03/02 03:35:13;;;;;;;1.05;0.95;;;1.10;99.90;;;;;;5019261;28;20764;-69
2021/03/02 03:37:40;;;;;;;1.38;1.10;;;1.00;99.90;;;;;;5018150;28;20893;-68
2021/03/02 03:40:07;;;;;;;1.38;1.10;;;0.90;99.90;;;;;;5018349;28;20213;-68
2021/03/02 03:42:32;;;;;;;1.27;1.17;;;0.80;99.90;;;;;;5016419;28;20213;-68
2021/03/02 03:44:58;;;;;;;1.17;1.05;;;0.80;99.90;;;;;;5019209;28;20564;-70
2021/03/02 03:47:24;;;;;;;1.15;1.05;;;0.70;99.90;;;;;;5016345;28;20206;-67
2021/03/02 03:49:49;;;;;;;1.67;1.13;;;0.70;99.90;;;;;;5019455;28;20267;-68
2021/03/02 03:52:17;;;;;;;1.02;0.93;;;0.60;99.90;;;;;;5017999;28;20615;-70
2021/03/02 03:54:43;;;;;;;1.20;1.10;;;0.50;99.90;;;;;;5016156;28;20209;-71
2021/03/02 03:57:11;;;;;;;1.85;1.30;;;0.50;99.90;;;;;;5017882;28;20212;-69
2021/03/02 03:59:38;;;;;;;1.20;1.10;;;0.40;99.90;;;;;;5018488;28;20206;-69
2021/03/02 04:02:06;;;;;;;2.10;1.30;;;0.40;99.90;;;;;;5016437;28;20220;-68
2021/03/02 04:04:33;;;;;;;1.77;1.30;;;0.50;99.90;;;;;;5005897;28;21015;-67
2021/03/02 04:06:59;;;;;;;1.92;1.20;;;0.50;99.90;;;;;;4997374;28;20199;-70
2021/03/02 04:09:25;;;;;;;1.70;1.20;;;0.50;99.90;;;;;;4998151;28;20274;-69
2021/03/02 04:11:51;;;;;;;3.25;1.17;;;0.60;99.90;;;;;;4997728;28;20209;-69
2021/03/02 04:14:17;;;;;;;1.70;1.20;;;0.60;99.90;;;;;;4996187;28;20211;-70
2021/03/02 04:16:42;;;;;;;1.85;1.20;;;0.60;99.90;;;;;;4995700;28;20199;-68
2021/03/02 04:19:09;;;;;;;1.30;1.20;;;0.60;99.90;;;;;;4981988;28;20202;-70
2021/03/02 04:21:34;;;;;;;1.98;1.10;;;0.80;99.90;;;;;;4994739;28;20254;-70
2021/03/02 04:24:00;;;;;;;2.80;1.27;;;1.00;99.90;;;;;;4996067;28;20199;-70
2021/03/02 04:26:26;;;;;;;1.23;1.08;;;1.00;99.90;;;;;;4962002;28;20532;-72
2021/03/02 04:28:52;;;;;;;1.20;1.10;;;1.10;99.90;;;;;;4974023;28;20197;-70
2021/03/02 04:31:18;;;;;;;1.27;1.00;;;1.20;99.90;;;;;;4992642;28;20196;-71
2021/03/02 04:33:43;;;;;;;1.40;1.20;;;1.60;99.90;;;;;;4992453;28;20205;-70
2021/03/02 04:36:09;;;;;;;1.30;1.13;;;1.70;99.90;;;;;;4997166;28;20206;-70
2021/03/02 04:38:35;;;;;;;2.03;1.05;;;1.80;99.90;;;;;;4995607;28;20256;-72
2021/03/02 04:41:01;;;;;;;5.38;1.15;;;1.80;99.90;;;;;;4993737;28;20282;-69
2021/03/02 04:43:27;;;;;;;1.25;1.10;;;1.70;99.90;;;;;;4998094;28;20195;-67
2021/03/02 04:45:52;;;;;;;1.10;0.98;;;1.70;99.90;;;;;;4995301;28;20202;-67
2021/03/02 04:48:18;;;;;;;2.55;1.00;;;1.50;99.90;;;;;;4977888;28;20206;-70
2021/03/02 04:50:44;;;;;;;1.27;1.17;;;1.40;99.90;;;;;;4997906;28;20203;-68
2021/03/02 04:53:10;;;;;;;3.05;1.10;;;1.30;99.90;;;;;;4995209;28;20198;-69
2021/03/02 04:55:36;;;;;;;1.40;1.17;;;1.20;99.90;;;;;;4989181;28;20195;-71
2021/03/02 04:58:02;;;;;;;1.10;0.90;;;1.10;99.90;;;;;;4996805;28;21675;-67
2021/03/02 05:00:28;;;;;;;1.55;1.10;;;1.00;99.90;;;;;;5001230;28;20199;-68
2021/03/02 05:02:53;;;;;;;3.15;1.20;;;1.10;99.90;;;;;;5000763;28;20270;-71
2021/03/02 05:05:19;;;;;;;2.38;1.23;;;1.10;99.90;;;;;;4999294;28;20251;-70
2021/03/02 05:07:45;;;;;;;1.38;1.10;;;1.10;99.90;;;;;;5004204;28;20195;-68
2021/03/02 05:10:11;;;;;;;1.38;1.13;;;1.00;99.90;;;;;;5003116;28;20211;-70
2021/03/02 05:12:37;;;;;;;1.50;1.00;;;1.00;99.90;;;;;;5003585;28;20227;-70
2021/03/02 05:15:04;;;;;;;2.90;1.20;;;0.90;99.90;;;;;;5007225;28;20269;-68
2021/03/02 05:17:29;;;;;;;1.25;1.10;;;0.90;99.90;;;;;;5006518;28;20226;-68
2021/03/02 05:19:55;;;;;;;1.33;1.10;;;0.80;99.90;;;;;;4983660;28;20354;-68
2021/03/02 05:22:21;;;;;;;1.08;0.93;;;0.80;99.90;;;;;;5004064;28;20214;-68
2021/03/02 05:24:46;;;;;;;1.73;1.20;;;0.80;99.90;;;;;;5000309;28;20199;-67
2021/03/02 05:27:12;;;;;;;3.67;1.10;;;0.80;99.90;;;;;;5003096;28;20195;-69
2021/03/02 05:29:38;;;;;;;3.67;1.08;;;0.80;99.90;;;;;;4986516;28;20218;-67
2021/03/02 05:32:04;;;;;;;1.58;1.30;;;0.80;99.90;;;;;;4985346;28;21018;-69
2021/03/02 05:34:30;;;;;;;1.52;1.27;;;0.70;99.90;;;;;;5004108;28;20672;-70
2021/03/02 05:36:56;;;;;;;1.33;1.13;;;0.70;99.90;;;;;;5004016;28;20207;-69
2021/03/02 05:39:21;;;;;;;1.90;1.15;;;0.60;99.90;;;;;;5000871;28;20277;-69
2021/03/02 05:41:48;;;;;;;3.83;1.40;;;0.60;99.90;;;;;;5003996;28;20207;-68
2021/03/02 05:44:14;;;;;;;1.25;1.15;;;0.60;99.90;;;;;;5008030;28;20890;-68
2021/03/02 05:46:41;;;;;;;2.22;1.30;;;0.50;99.90;;;;;;4990087;28;20199;-66
2021/03/02 05:49:10;;;;;;;1.35;1.20;;;0.50;99.90;;;;;;5004165;28;20195;-67
2021/03/02 05:51:38;;;;;;;1.63;1.23;;;0.50;99.90;;;;;;4988429;28;20205;-67
2021/03/02 05:54:05;;;;;;;1.67;1.17;;;0.50;99.90;;;;;;4988669;28;20195;-68
2021/03/02 05:56:31;;;;;;;1.40;1.20;;;0.50;99.90;;;;;;4999630;28;20254;-67
2021/03/02 05:58:56;;;;;;;1.40;1.30;;;0.50;99.90;;;;;;4982205;28;20200;-70
2021/03/02 06:01:22;;;;;;;4.00;1.25;;;0.40;99.90;;;;;;4983335;28;20743;-69
2021/03/02 06:03:48;;;;;;;1.98;1.23;;;0.30;99.90;;;;;;5008947;28;20222;-67
2021/03/02 06:06:14;;;;;;;1.30;1.20;;;0.30;99.90;;;;;;5004253;28;20277;-69
2021/03/02 06:08:43;;;;;;;1.92;1.40;;;0.30;99.90;;;;;;5023525;28;20279;-69
2021/03/02 06:11:28;;;;;;;1.30;1.10;;;0.30;99.90;;;;;;5022548;28;20198;-67
2021/03/02 06:13:54;;;;;;;2.00;1.30;;;0.30;99.90;;;;;;5022323;28;20206;-69
2021/03/02 06:16:20;;;;;;;1.65;1.20;;;0.40;99.90;;;;;;5023897;28;20209;-69
2021/03/02 06:18:55;;;;;;;2.53;1.20;;;0.40;99.90;;;;;;5008050;28;20202;-68
2021/03/02 06:21:21;;;;;;;1.30;1.20;;;0.50;99.90;;;;;;5002161;28;20193;-69
2021/03/02 06:23:52;;;;;;;2.90;1.13;;;0.50;99.90;;;;;;5023778;28;20547;-68
2021/03/02 06:26:24;;;;;;;1.88;1.20;;;0.50;99.90;;;;;;5019339;28;20190;-69
2021/03/02 06:28:53;;;;;;;1.35;1.20;;;0.60;99.90;;;;;;5022206;28;20190;-68
2021/03/02 06:31:38;;;;;;;1.48;1.23;;;0.80;99.90;;;;;;5019717;28;20202;-67
2021/03/02 06:34:09;;;;;;;1.30;1.20;;;0.80;99.90;;;;;;5019996;28;20245;-68
2021/03/02 06:36:36;;;;;;;2.08;1.27;;;0.80;99.90;;;;;;5022955;28;20198;-69
2021/03/02 06:39:40;;;;;;;1.88;1.20;;;0.80;99.90;;;;;;5023977;28;20989;-68
2021/03/02 06:42:15;;;;;;;1.58;1.05;;;0.80;99.90;;;;;;5024547;28;20217;-67
2021/03/02 06:44:52;;;;;;;1.30;1.20;;;0.80;99.90;;;;;;5019865;28;20229;-67
2021/03/02 06:47:35;;;;;;;1.15;1.05;;;0.80;99.90;;;;;;5001006;28;20190;-69
2021/03/02 06:50:03;;;;;;;1.20;1.10;;;0.90;99.90;;;;;;5020779;28;20228;-67
2021/03/02 06:52:36;;;;;;;1.30;1.10;;;0.80;99.90;;;;;;5022903;28;20746;-70
2021/03/02 06:55:04;;;;;;;1.45;1.10;;;0.90;99.90;;;;;;5020533;28;20226;-69
2021/03/02 06:57:30;;;;;;;1.95;1.63;;;0.90;99.90;;;;;;5023239;28;20202;-67
2021/03/02 07:00:00;;;;;;;1.70;1.20;;;0.90;99.90;;;;;;5001022;28;20206;-69
2021/03/02 07:02:46;;;;;;;1.48;1.27;;;1.00;99.90;;;;;;5019870;28;20198;-67
2021/03/02 07:05:13;;;;;;;1.42;1.10;;;1.00;99.90;;;;;;5013799;28;20229;-69
2021/03/02 07:07:55;;;;;;;1.95;1.50;;;1.10;99.90;;;;;;5016917;28;20318;-67
2021/03/02 07:10:22;;;;;;;1.30;1.20;;;1.20;99.90;;;;;;5013411;28;20190;-68
2021/03/02 07:12:51;;;;;;;2.05;1.33;;;1.30;99.90;;;;;;5023835;28;21088;-68
2021/03/02 07:15:18;;;;;;;1.17;1.05;;;1.50;99.90;;;;;;5019838;28;20202;-68
2021/03/02 07:17:44;;;;;;;1.20;1.10;;;1.50;99.90;;;;;;5019252;28;20281;-70
2021/03/02 07:20:12;;;;;;;5.60;1.10;;;1.60;99.90;;;;;;5023004;28;20379;-66
2021/03/02 07:22:45;;;;;;;1.17;1.08;;;1.70;99.90;;;;;;5022101;28;20217;-66
2021/03/02 07:25:12;;;;;;;1.77;1.25;;;1.70;99.90;;;;;;5015041;28;20193;-67
2021/03/02 07:27:41;;;;;;;2.70;1.10;;;1.80;99.90;;;;;;5000746;28;20289;-67
2021/03/02 07:30:11;;;;;;;1.30;1.00;;;1.80;99.90;;;;;;4996048;28;20198;-67
2021/03/02 07:32:39;;;;;;;1.40;1.10;;;1.80;99.90;;;;;;5013438;28;20613;-70
2021/03/02 07:35:09;;;;;;;1.20;1.10;;;1.90;99.90;;;;;;5024355;28;20213;-67
2021/03/02 07:37:35;;;;;;;1.13;1.02;;;2.00;99.90;;;;;;5024599;28;20293;-68
2021/03/02 07:40:10;;;;;;;1.45;1.30;;;2.00;99.90;;;;;;5023020;28;20212;-68
2021/03/02 07:42:36;;;;;;;1.13;1.02;;;2.20;99.90;;;;;;5024207;28;20627;-69
2021/03/02 07:45:08;;;;;;;1.40;1.05;;;2.30;99.90;;;;;;5022148;28;20194;-69
2021/03/02 07:47:47;;;;;;;1.42;1.10;;;2.30;99.90;;;;;;5021823;28;20260;-69
2021/03/02 07:50:18;;;;;;;3.90;1.40;;;2.30;99.90;;;;;;5024813;28;20194;-66
2021/03/02 07:52:45;;;;;;;3.70;1.05;;;2.30;99.90;;;;;;5002117;28;20198;-68
2021/03/02 07:55:25;;;;;;;1.73;1.20;;;2.40;99.90;;;;;;5022418;28;20210;-67
2021/03/02 07:58:18;;;;;;;1.35;1.10;;;2.40;99.90;;;;;;4992914;28;20202;-68
2021/03/02 08:00:51;;;;;;;1.20;1.10;;;2.60;99.90;;;;;;5017423;28;20271;-69
2021/03/02 08:03:20;;;;;;;2.05;0.90;;;2.60;99.90;;;;;;5021802;28;20194;-68
2021/03/02 08:05:48;;;;;;;1.20;1.10;;;2.70;99.90;;;;;;5017856;28;20288;-68
2021/03/02 08:08:22;;;;;;;1.40;1.13;;;2.70;99.90;;;;;;5020501;28;20479;-68
2021/03/02 08:10:52;;;;;;;4.20;1.25;;;2.70;99.90;;;;;;5020157;28;20202;-70
2021/03/02 08:13:40;;;;;;;1.27;1.13;;;2.70;99.90;;;;;;5018686;28;20683;-69
2021/03/02 08:16:13;;;;;;;1.80;1.20;;;2.70;99.90;;;;;;5002923;28;20256;-67
2021/03/02 08:18:40;;;;;;;1.27;1.10;;;2.70;99.90;;;;;;5005367;28;20191;-67
2021/03/02 08:21:16;;;;;;;1.30;1.20;;;2.90;99.90;;;;;;5021425;28;20217;-66
2021/03/02 08:23:47;;;;;;;1.25;1.13;;;3.10;99.90;;;;;;5018954;28;20666;-67
2021/03/02 08:26:20;;;;;;;2.17;0.95;;;3.40;99.90;;;;;;5007863;28;20288;-68
2021/03/02 08:29:09;;;;;;;3.47;1.20;;;3.80;99.90;;;;;;5011798;28;20198;-67
2021/03/02 08:31:35;;;;;;;2.45;1.02;;;4.10;99.90;;;;;;5013305;28;20275;-68
2021/03/02 08:34:03;;;;;;;1.15;1.02;;;4.40;99.90;;;;;;5018283;28;20194;-67
2021/03/02 08:36:29;;;;;;;1.45;1.00;;;4.60;99.90;;;;;;5013027;28;21078;-68
2021/03/02 08:38:56;;;;;;;3.72;0.90;;;4.90;99.90;;;;;;5021179;28;20256;-67
2021/03/02 08:41:29;;;;;;;1.77;1.10;;;5.20;99.90;;;;;;5020642;28;20205;-69
2021/03/02 08:43:55;;;;;;;1.67;1.10;;;5.50;99.90;;;;;;5019714;28;20198;-69
2021/03/02 08:46:35;;;;;;;1.08;0.90;;;5.70;99.90;;;;;;5019730;28;20202;-68
2021/03/02 08:49:11;;;;;;;1.52;1.15;;;6.10;99.90;;;;;;5023375;28;20206;-70
2021/03/02 08:51:37;;;;;;;1.33;1.10;;;6.40;99.90;;;;;;5024263;28;20220;-70
2021/03/02 08:54:04;;;;;;;5.55;1.20;;;6.60;99.90;;;;;;5024271;28;20259;-68
2021/03/02 08:56:31;;;;;;;1.42;1.00;;;6.80;99.90;;;;;;5019356;28;20703;-68
2021/03/02 08:59:08;;;;;;;1.17;1.00;;;7.00;99.90;;;;;;5019733;28;20729;-68
2021/03/02 09:01:38;;;;;;;0.90;0.90;;;7.30;99.90;;;;;;4996219;28;20264;-70
2021/03/02 09:04:11;;;;;;;1.63;0.90;;;7.50;99.90;;;;;;4994845;28;20289;-69
2021/03/02 09:06:38;;;;;;;1.10;0.90;;;7.70;99.90;;;;;;4992515;28;20206;-68
2021/03/02 09:09:09;;;;;;;0.90;0.90;;;7.80;99.90;;;;;;4997605;28;20203;-69
2021/03/02 09:11:40;;;;;;;3.13;1.00;;;7.90;99.90;;;;;;4997255;28;20689;-69
2021/03/02 09:14:13;;;;;;;2.38;1.00;;;8.20;99.90;;;;;;4997118;28;20257;-69
2021/03/02 09:16:41;;;;;;;0.98;0.90;;;8.40;99.90;;;;;;4992034;28;20750;-70
2021/03/02 09:19:25;;;;;;;1.30;1.00;;;8.40;99.90;;;;;;4994036;28;20210;-69
2021/03/02 09:21:54;;;;;;;1.08;0.98;;;8.50;99.90;;;;;;4976266;28;20791;-70
2021/03/02 09:24:22;;;;;;;0.98;0.98;;;8.70;99.90;;;;;;4981589;28;20973;-69
2021/03/02 09:26:50;;;;;;;1.55;1.00;;;8.70;99.90;;;;;;4977840;28;20199;-68
2021/03/02 09:29:17;;;;;;;1.77;0.90;;;8.90;99.90;;;;;;5002367;28;20195;-68
2021/03/02 09:31:43;;;;;;;1.15;1.00;;;8.90;99.90;;;;;;5003680;28;20205;-69
2021/03/02 09:34:09;;;;;;;1.05;0.93;;;9.00;99.90;;;;;;4999902;28;20230;-66
2021/03/02 09:36:35;;;;;;;1.92;0.90;;;9.10;99.90;;;;;;5005454;28;20293;-69
2021/03/02 09:39:25;;;;;;;2.05;0.98;;;9.20;99.90;;;;;;5003806;28;20206;-69
2021/03/02 09:41:52;;;;;;;6.28;0.90;;;9.50;99.90;;;;;;4999555;28;21099;-68
2021/03/02 09:44:32;;;;;;;1.35;0.90;;;9.60;99.90;;;;;;4977003;28;20644;-69
2021/03/02 09:47:04;;;;;;;1.73;0.95;;;9.90;99.60;;;;;;5001605;28;21116;-68
2021/03/02 09:49:53;;;;;;;0.90;0.80;;;10.10;99.90;;;;;;4997108;28;20191;-69
2021/03/02 09:52:31;;;;;;;2.95;0.85;;;10.20;98.70;;;;;;4986925;28;20206;-68
2021/03/02 09:55:10;;;;;;;1.60;0.90;;;10.40;98.20;;;;;;4994345;28;20199;-67
2021/03/02 09:58:05;;;;;;;1.65;0.80;;;10.60;97.10;;;;;;4996263;28;20222;-70
2021/03/02 10:00:34;;;;;;;0.73;0.73;;;10.80;97.20;;;;;;4994485;28;20198;-70
2021/03/02 10:03:05;;;;;;;0.80;0.80;;;10.70;96.10;;;;;;4997859;28;20211;-68
2021/03/02 10:05:33;;;;;;;0.80;0.80;;;10.80;96.40;;;;;;5019790;28;20221;-67
2021/03/02 10:08:14;;;;;;;1.02;0.80;;;10.80;94.20;;;;;;5019902;28;20198;-68
2021/03/02 10:10:39;;;;;;;0.80;0.80;;;10.90;93.90;;;;;;4995996;28;20203;-69
2021/03/02 10:13:05;;;;;;;3.78;0.90;;;10.70;94.20;;;;;;5020813;28;20923;-67
2021/03/02 10:15:34;;;;;;;1.65;0.90;;;10.90;96.90;;;;;;5022306;28;20190;-68
2021/03/02 10:18:01;;;;;;;1.17;0.75;;;11.20;95.60;;;;;;5004438;28;20210;-67
2021/03/02 10:20:27;;;;;;;2.28;0.85;;;11.40;94.90;;;;;;5020438;28;20726;-67
2021/03/02 10:23:06;;;;;;;2.97;1.00;;;11.60;94.00;;;;;;5020950;28;20205;-67
2021/03/02 10:25:41;;;;;;;5.85;1.00;;;11.70;95.90;;;;;;5020587;28;20202;-70
2021/03/02 10:28:07;;;;;;;3.03;0.90;;;11.80;95.20;;;;;;5016909;28;20198;-70
2021/03/02 10:30:33;;;;;;;1.35;1.13;;;11.90;94.40;;;;;;5017083;28;20288;-68
2021/03/02 10:32:59;;;;;;;2.00;1.05;;;11.90;93.60;;;;;;5018504;28;20241;-70
2021/03/02 10:35:24;;;;;;;4.82;1.10;;;11.90;92.10;;;;;;5017286;28;20214;-69
2021/03/02 10:37:50;;;;;;;7.80;1.10;;;12.00;94.30;;;;;;5019443;28;20202;-68
2021/03/02 10:40:16;;;;;;;10.43;1.17;;;12.00;93.80;;;;;;4991104;28;20293;-68
2021/03/02 10:42:42;;;;;;;9.27;2.03;;;12.00;94.20;;;;;;4997311;28;20260;-68
2021/03/02 10:45:08;;;;;;;2.05;1.20;;;12.00;93.40;;;;;;4999739;28;20742;-68
2021/03/02 10:47:34;;;;;;;29.50;15.25;;;11.80;90.90;;;;;;5015095;28;20784;-68
2021/03/02 10:49:59;;;;;;;1.60;1.10;;;11.60;93.20;;;;;;4997965;28;20294;-67
2021/03/02 10:52:25;;;;;;;1.77;1.30;;;11.70;91.90;;;;;;5017122;28;20716;-68
2021/03/02 10:54:51;;;;;;;1.20;1.00;;;11.80;92.70;;;;;;5015020;28;20565;-69
2021/03/02 10:57:17;;;;;;;1.27;0.95;;;12.00;92.50;;;;;;5019919;28;20676;-70
2021/03/02 10:59:42;;;;;;;19.75;1.35;;;12.20;90.80;;;;;;5002458;28;20802;-69
2021/03/02 11:02:08;;;;;;;4.78;1.33;;;12.20;92.60;;;;;;5016055;28;20202;-69
2021/03/02 11:04:34;;;;;;;2.65;1.02;;;12.20;91.60;;;;;;5001288;28;20272;-69
2021/03/02 11:06:59;;;;;;;1.77;1.10;;;12.30;91.70;;;;;;5018358;28;20226;-69
2021/03/02 11:09:25;;;;;;;2.97;0.90;;;12.20;91.20;;;;;;5018040;28;20194;-70
2021/03/02 11:11:51;;;;;;;6.43;0.90;;;12.30;91.70;;;;;;5000962;28;20210;-68
2021/03/02 11:14:17;;;;;;;3.47;1.17;;;12.30;90.20;;;;;;5013103;28;20206;-69
2021/03/02 11:16:43;;;;;;;2.85;0.80;;;12.40;90.90;;;;;;5017382;28;20949;-69
2021/03/02 11:19:09;;;;;;;1.42;0.70;;;12.50;92.40;;;;;;5019525;28;20208;-70
2021/03/02 11:21:36;;;;;;;1.15;0.88;;;12.70;93.00;;;;;;5021613;28;20283;-70
2021/03/02 11:24:01;;;;;;;0.80;0.80;;;12.80;90.30;;;;;;5018956;28;20252;-69
2021/03/02 11:26:27;;;;;;;1.20;0.90;;;12.70;91.30;;;;;;5005977;28;20212;-69
2021/03/02 11:28:53;;;;;;;1.15;0.80;;;12.70;90.50;;;;;;5004747;28;20202;-70
2021/03/02 11:31:18;;;;;;;0.95;0.77;;;12.60;88.40;;;;;;5010811;28;20202;-70
2021/03/02 11:33:44;;;;;;;2.85;1.10;;;12.40;89.10;;;;;;5013373;28;20202;-69
2021/03/02 11:36:10;;;;;;;1.48;1.00;;;12.20;90.90;;;;;;5018970;28;20304;-71
2021/03/02 11:38:36;;;;;;;1.48;0.85;;;12.20;90.60;;;;;;4991323;28;20205;-69
2021/03/02 11:41:03;;;;;;;0.70;0.70;;;12.10;90.40;;;;;;5015031;28;20198;-69
2021/03/02 11:43:29;;;;;;;1.55;0.85;;;12.50;91.90;;;;;;5016531;28;20276;-67
2021/03/02 11:45:55;;;;;;;4.88;0.90;;;12.80;88.90;;;;;;5016371;28;20198;-68
2021/03/02 11:48:21;;;;;;;3.22;1.55;;;13.00;87.00;;;;;;5000172;28;20249;-69
2021/03/02 11:50:47;;;;;;;2.45;1.00;;;13.00;86.90;;;;;;5009207;28;20285;-70
2021/03/02 11:53:12;;;;;;;1.45;1.00;;;13.00;88.40;;;;;;5003494;28;20579;-71
2021/03/02 11:55:38;;;;;;;1.40;1.00;;;13.00;87.70;;;;;;5013279;28;20230;-70
2021/03/02 11:58:04;;;;;;;0.73;0.73;;;13.10;86.70;;;;;;5015819;28;20643;-70
2021/03/02 12:00:29;;;;;;;0.70;0.70;;;13.00;83.60;;;;;;5016190;28;20199;-67
2021/03/02 12:02:55;;;;;;;1.48;0.80;;;12.90;84.50;;;;;;5014128;28;20215;-68
2021/03/02 12:05:21;;;;;;;1.27;0.80;;;13.00;86.00;;;;;;5009474;28;20601;-68
2021/03/02 12:07:49;;;;;;;1.23;0.90;;;12.90;85.10;;;;;;5015189;28;20197;-70
2021/03/02 12:10:16;;;;;;;0.60;0.60;;;13.00;85.70;;;;;;4996685;28;20210;-67
2021/03/02 12:12:43;;;;;;;0.70;0.70;;;13.10;86.40;;;;;;5013020;28;20225;-69
2021/03/02 12:15:10;;;;;;;15.20;7.10;;;13.00;84.20;;;;;;5017539;28;20225;-70
2021/03/02 12:17:36;;;;;;;13.35;7.25;;;13.20;86.70;;;;;;5001280;28;20198;-69
2021/03/02 12:20:04;;;;;;;5.65;3.67;;;13.40;83.60;;;;;;5013237;28;20264;-71
2021/03/02 12:22:30;;;;;;;2.80;1.67;;;13.70;84.80;;;;;;4999734;28;21033;-69
2021/03/02 12:24:56;;;;;;;0.60;0.60;;;13.70;84.90;;;;;;5017628;28;20186;-69
2021/03/02 12:27:21;;;;;;;1.35;1.20;;;13.70;80.30;;;;;;5017507;28;20255;-69
2021/03/02 12:29:47;;;;;;;0.85;0.63;;;13.60;81.90;;;;;;4999848;28;20194;-70
2021/03/02 12:32:13;;;;;;;1.58;0.80;;;13.60;81.50;;;;;;4999311;28;20194;-69
2021/03/02 12:34:39;;;;;;;1.13;0.80;;;13.50;83.80;;;;;;5018918;28;20563;-69
2021/03/02 12:37:05;;;;;;;6.97;0.90;;;13.80;82.90;;;;;;5019034;28;20212;-69
2021/03/02 12:39:31;;;;;;;2.35;0.80;;;14.10;82.10;;;;;;5013319;28;20202;-68
2021/03/02 12:41:57;;;;;;;1.83;0.90;;;14.10;81.60;;;;;;5014772;28;20217;-71
2021/03/02 12:44:23;;;;;;;1.10;0.95;;;14.10;83.40;;;;;;5012251;28;20232;-69
2021/03/02 12:46:49;;;;;;;1.20;1.10;;;14.20;83.70;;;;;;5000213;28;20206;-70
2021/03/02 12:49:15;;;;;;;1.58;1.10;;;14.10;81.10;;;;;;5014829;28;20202;-70
2021/03/02 12:51:41;;;;;;;1.02;0.63;;;14.10;80.60;;;;;;5021044;28;20208;-68
2021/03/02 12:54:07;;;;;;;5.47;0.63;;;14.00;81.50;;;;;;4999239;28;20195;-67
2021/03/02 12:56:33;;;;;;;2.90;0.70;;;13.90;77.90;;;;;;5017539;28;20249;-69
2021/03/02 12:58:59;;;;;;;0.80;0.80;;;13.90;78.30;;;;;;5000077;28;21068;-69
2021/03/02 13:01:25;;;;;;;4.97;0.70;;;14.30;81.70;;;;;;5012793;28;20206;-71
2021/03/02 13:03:56;;;;;;;0.57;0.57;;;14.70;79.30;;;;;;5017459;28;20266;-69